Time;durP1;ratioP1;P1;durP2;ratioP2;P2;SDS_P1;SDS_P2;PMS_P1;PMS_P2;Temp;Humidity;BMP_temperature;BMP_pressure;BME280_temperature;BME280_humidity;BME280_pressure;Samples;Min_cycle;Max_cycle;Signal;HPM_P1;HPM_P2
2023/06/06 00:02:33;;;;;;;7.40;5.10;;;;;;;15.26;60.22;96881.01;107795;1266;2150374;-85
2023/06/06 00:05:11;;;;;;;6.80;4.90;;;;;;;15.34;60.27;96881.04;109359;1270;22556;-86
2023/06/06 00:07:50;;;;;;;7.60;5.10;;;;;;;15.42;60.36;96878.59;109428;1269;22504;-86
2023/06/06 00:10:25;;;;;;;8.50;4.90;;;;;;;15.53;60.33;96874.66;109469;1263;98176;-85
2023/06/06 00:13:01;;;;;;;6.70;5.00;;;;;;;15.59;60.26;96868.33;109312;1269;22504;-86
2023/06/06 00:15:33;;;;;;;7.20;4.70;;;;;;;15.63;60.01;96869.11;109518;1269;22547;-86
2023/06/06 00:18:06;;;;;;;6.90;4.60;;;;;;;15.66;59.90;96868.40;109529;1269;22546;-86
2023/06/06 00:20:45;;;;;;;7.30;5.00;;;;;;;15.70;59.94;96865.30;109369;1253;70243;-85
2023/06/06 00:23:25;;;;;;;8.60;4.60;;;;;;;15.73;59.89;96863.65;109542;1269;22500;-86
2023/06/06 00:26:01;;;;;;;6.60;4.40;;;;;;;15.71;59.72;96864.95;109505;1262;22734;-86
2023/06/06 00:28:35;;;;;;;7.90;4.60;;;;;;;15.71;60.00;96869.86;109535;1269;22509;-85
2023/06/06 00:31:08;;;;;;;5.70;4.20;;;;;;;15.57;59.93;96868.16;109493;1268;56777;-86
2023/06/06 00:33:45;;;;;;;5.90;4.50;;;;;;;15.44;60.08;96869.93;109553;1269;22566;-86
2023/06/06 00:36:19;;;;;;;6.80;4.30;;;;;;;15.44;60.20;96871.06;109519;1267;22983;-86
2023/06/06 00:38:53;;;;;;;6.90;4.20;;;;;;;15.40;60.12;96866.89;109296;1251;22558;-86
2023/06/06 00:41:25;;;;;;;6.10;3.80;;;;;;;15.32;60.13;96860.24;109473;1269;70779;-86
2023/06/06 00:43:57;;;;;;;8.90;4.10;;;;;;;15.29;60.31;96860.25;109513;1269;25420;-86
2023/06/06 00:46:29;;;;;;;7.20;4.80;;;;;;;15.26;60.25;96860.36;109360;1269;22701;-85
2023/06/06 00:49:06;;;;;;;6.50;4.70;;;;;;;15.29;60.37;96859.02;109513;1269;23858;-86
2023/06/06 00:51:38;;;;;;;6.70;4.40;;;;;;;15.34;60.19;96860.72;109458;1264;60822;-86
2023/06/06 00:54:13;;;;;;;5.80;4.20;;;;;;;15.41;60.50;96855.01;109526;1266;22509;-86
2023/06/06 00:56:51;;;;;;;6.80;4.30;;;;;;;15.43;60.56;96858.36;109548;1267;22507;-85
2023/06/06 00:59:25;;;;;;;7.40;4.60;;;;;;;15.47;60.15;96856.59;109525;1266;23435;-86
2023/06/06 01:01:58;;;;;;;7.80;4.40;;;;;;;15.53;59.89;96854.00;109432;1269;131307;-86
2023/06/06 01:04:34;;;;;;;5.50;3.70;;;;;;;15.59;59.53;96854.65;109301;1264;22668;-86
2023/06/06 01:07:09;;;;;;;9.60;4.60;;;;;;;15.64;59.96;96854.67;109552;1263;22505;-85
2023/06/06 01:09:48;;;;;;;6.80;4.50;;;;;;;15.65;60.05;96851.86;109510;1269;22520;-86
2023/06/06 01:12:33;;;;;;;6.10;3.90;;;;;;;15.61;60.03;96850.93;109485;1269;43995;-86
2023/06/06 01:15:16;;;;;;;8.40;4.10;;;;;;;15.37;60.42;96848.63;109328;1269;26572;-85
2023/06/06 01:17:49;;;;;;;6.60;4.20;;;;;;;15.21;60.86;96846.66;109498;1264;22553;-86
2023/06/06 01:20:23;;;;;;;7.20;4.20;;;;;;;15.23;61.34;96845.91;109402;1269;114719;-85
2023/06/06 01:22:56;;;;;;;7.20;4.20;;;;;;;15.28;61.40;96846.80;109546;1267;23798;-85
2023/06/06 01:25:34;;;;;;;6.70;4.40;;;;;;;15.30;61.28;96846.22;109538;1245;25462;-85
2023/06/06 01:28:15;;;;;;;6.50;4.20;;;;;;;15.24;61.30;96848.49;109468;1269;22536;-85
2023/06/06 01:30:48;;;;;;;7.10;4.20;;;;;;;15.13;61.33;96846.83;108033;1264;1665442;-85
2023/06/06 01:33:33;;;;;;;8.20;4.20;;;;;;;15.10;61.40;96846.37;109560;1267;24179;-85
2023/06/06 01:36:20;;;;;;;8.20;4.60;;;;;;;15.14;61.64;96845.98;109546;1263;25294;-85
2023/06/06 01:38:56;;;;;;;5.90;4.10;;;;;;;15.17;61.49;96850.52;109576;1269;22572;-85
2023/06/06 01:41:33;;;;;;;8.00;4.30;;;;;;;15.21;61.39;96853.66;109492;1266;67388;-86
2023/06/06 01:44:07;;;;;;;6.20;4.20;;;;;;;15.24;61.68;96853.21;109534;1263;22642;-85
2023/06/06 01:46:42;;;;;;;7.20;4.40;;;;;;;15.24;61.59;96850.27;109573;1264;22710;-86
2023/06/06 01:49:15;;;;;;;6.70;4.70;;;;;;;15.26;61.81;96849.42;109610;1264;22850;-86
2023/06/06 01:51:51;;;;;;;5.50;4.00;;;;;;;15.21;62.26;96852.52;109521;1264;61711;-86
2023/06/06 01:54:23;;;;;;;5.20;4.00;;;;;;;15.06;62.13;96847.99;109613;1269;22500;-86
2023/06/06 01:56:57;;;;;;;7.10;4.30;;;;;;;15.04;62.31;96846.74;109547;1266;23470;-85
2023/06/06 01:59:32;;;;;;;6.10;4.30;;;;;;;15.08;62.46;96846.52;109575;1250;22566;-86
2023/06/06 02:02:04;;;;;;;6.10;4.20;;;;;;;15.07;62.39;96846.59;109507;1269;90055;-86
2023/06/06 02:04:36;;;;;;;6.20;4.30;;;;;;;14.94;62.30;96845.11;109298;1269;22519;-87
2023/06/06 02:07:08;;;;;;;6.20;4.00;;;;;;;14.82;61.99;96842.15;109564;1264;24206;-86
2023/06/06 02:09:43;;;;;;;7.40;4.80;;;;;;;14.80;61.92;96840.95;109522;1267;23908;-86
2023/06/06 02:12:19;;;;;;;6.90;4.40;;;;;;;14.88;62.66;96840.53;109490;1266;66915;-85
2023/06/06 02:14:53;;;;;;;5.50;4.10;;;;;;;14.86;62.82;96844.16;109577;1269;23756;-86
2023/06/06 02:17:24;;;;;;;7.20;3.70;;;;;;;14.82;63.12;96845.89;109219;1268;22502;-86
2023/06/06 02:19:57;;;;;;;5.80;4.10;;;;;;;14.80;62.92;96844.77;109487;1267;22505;-86
2023/06/06 02:22:29;;;;;;;6.90;4.10;;;;;;;14.78;63.00;96843.27;109540;1267;65996;-86
2023/06/06 02:25:03;;;;;;;6.60;4.50;;;;;;;14.77;62.67;96841.40;109595;1264;25229;-85
2023/06/06 02:27:36;;;;;;;6.20;4.20;;;;;;;14.79;62.76;96840.99;109519;1266;26606;-86
2023/06/06 02:30:10;;;;;;;5.70;4.20;;;;;;;14.83;62.82;96841.91;109286;1269;22504;-85
2023/06/06 02:32:41;;;;;;;7.20;4.70;;;;;;;14.80;62.74;96839.15;109459;1269;101473;-85
2023/06/06 02:35:19;;;;;;;5.60;4.30;;;;;;;14.66;62.61;96835.17;109566;1268;22504;-85
2023/06/06 02:37:50;;;;;;;6.00;4.00;;;;;;;14.56;62.42;96839.49;109560;1267;22508;-85
2023/06/06 02:40:23;;;;;;;6.80;4.00;;;;;;;14.57;62.80;96840.13;109529;1269;49306;-85
2023/06/06 02:42:54;;;;;;;5.40;4.30;;;;;;;14.61;63.02;96839.13;109529;1264;25439;-85
2023/06/06 02:45:26;;;;;;;5.50;4.00;;;;;;;14.63;63.03;96839.02;109547;1267;22588;-86
2023/06/06 02:47:57;;;;;;;6.30;4.60;;;;;;;14.59;63.09;96839.37;109579;1266;22545;-86
2023/06/06 02:50:31;;;;;;;7.30;4.40;;;;;;;14.57;63.33;96843.73;109528;1264;47544;-86
2023/06/06 02:53:06;;;;;;;8.30;4.40;;;;;;;14.62;63.24;96840.70;109592;1256;22534;-86
2023/06/06 02:55:38;;;;;;;8.60;4.30;;;;;;;14.65;63.12;96839.00;109548;1267;22515;-86
2023/06/06 02:58:27;;;;;;;7.70;4.50;;;;;;;14.67;62.87;96840.65;109586;1267;22712;-86
2023/06/06 03:01:01;;;;;;;7.40;4.60;;;;;;;14.62;62.80;96840.20;109519;1269;57005;-86
2023/06/06 03:03:32;;;;;;;6.30;4.20;;;;;;;14.64;62.72;96837.36;109549;1264;22548;-86
2023/06/06 03:06:06;;;;;;;7.80;4.60;;;;;;;14.62;63.02;96837.29;109321;1269;22512;-86
2023/06/06 03:08:44;;;;;;;7.60;4.40;;;;;;;14.63;63.38;96839.56;109305;1269;22576;-86
2023/06/06 03:11:21;;;;;;;7.90;4.50;;;;;;;14.62;63.52;96839.79;109334;1263;120901;-85
2023/06/06 03:13:53;;;;;;;9.20;4.50;;;;;;;14.66;63.89;96842.45;109524;1250;22661;-86
2023/06/06 03:16:26;;;;;;;6.50;4.20;;;;;;;14.58;63.86;96840.68;109550;1266;23110;-86
2023/06/06 03:18:58;;;;;;;6.90;3.70;;;;;;;14.44;63.77;96842.96;109560;1269;23945;-85
2023/06/06 03:21:34;;;;;;;5.50;4.00;;;;;;;14.37;64.14;96838.56;108062;1267;2019836;-86
2023/06/06 03:24:06;;;;;;;6.70;4.30;;;;;;;14.33;64.14;96838.79;109602;1264;22604;-86
2023/06/06 03:26:39;;;;;;;7.40;4.00;;;;;;;14.37;64.41;96840.22;109568;1263;24272;-86
2023/06/06 03:29:11;;;;;;;6.50;4.40;;;;;;;14.45;64.74;96840.82;109569;1263;22500;-86
2023/06/06 03:31:44;;;;;;;6.70;4.20;;;;;;;14.52;64.89;96841.28;109517;1269;77674;-86
2023/06/06 03:34:20;;;;;;;5.80;4.40;;;;;;;14.59;64.83;96842.25;109549;1264;22514;-86
2023/06/06 03:36:58;;;;;;;6.90;4.00;;;;;;;14.66;65.08;96837.80;109572;1263;22552;-86
2023/06/06 03:39:32;;;;;;;5.60;4.00;;;;;;;14.70;65.00;96838.04;109525;1269;22501;-86
2023/06/06 03:42:05;;;;;;;6.50;4.30;;;;;;;14.74;65.34;96838.05;109224;1264;95587;-86
2023/06/06 03:44:37;;;;;;;7.20;4.40;;;;;;;14.71;65.83;96831.71;109567;1269;22505;-86
2023/06/06 03:47:11;;;;;;;7.30;4.20;;;;;;;14.64;65.99;96832.30;109535;1269;22553;-86
2023/06/06 03:49:43;;;;;;;6.80;4.30;;;;;;;14.60;66.35;96833.81;109561;1263;22805;-86
2023/06/06 03:52:16;;;;;;;7.00;4.20;;;;;;;14.49;66.85;96835.46;109442;1269;111996;-86
2023/06/06 03:54:49;;;;;;;7.70;4.20;;;;;;;14.45;66.98;96835.98;109559;1269;22507;-86
2023/06/06 03:57:21;;;;;;;6.80;4.10;;;;;;;14.48;66.91;96833.73;109573;1264;25227;-85
2023/06/06 03:59:54;;;;;;;8.30;4.70;;;;;;;14.60;67.54;96834.83;109544;1269;22631;-86
2023/06/06 04:02:29;;;;;;;7.10;4.80;;;;;;;14.69;67.88;96833.48;109487;1269;92140;-85
2023/06/06 04:05:01;;;;;;;5.60;4.10;;;;;;;14.72;67.94;96834.67;109510;1269;23233;-86
2023/06/06 04:07:33;;;;;;;5.30;4.70;;;;;;;14.63;68.12;96833.38;109554;1264;22582;-86
2023/06/06 04:10:06;;;;;;;6.10;4.30;;;;;;;14.58;68.44;96833.73;109514;1269;22625;-86
2023/06/06 04:12:39;;;;;;;6.70;4.60;;;;;;;14.66;68.81;96833.11;109501;1267;51625;-86
2023/06/06 04:15:13;;;;;;;6.00;4.60;;;;;;;14.78;68.72;96832.69;109343;1257;23552;-85
2023/06/06 04:17:46;;;;;;;6.80;4.10;;;;;;;14.93;69.36;96831.66;109529;1269;22624;-85
2023/06/06 04:20:26;;;;;;;10.20;5.20;;;;;;;15.06;69.65;96830.73;109566;1263;22603;-85
2023/06/06 04:23:00;;;;;;;8.00;4.90;;;;;;;15.18;69.87;96828.08;109529;1269;24111;-85
2023/06/06 04:25:32;;;;;;;7.90;5.10;;;;;;;15.27;69.99;96824.82;109325;1269;25255;-86
2023/06/06 04:28:06;;;;;;;6.80;4.90;;;;;;;15.39;70.13;96827.62;109556;1269;26744;-86
2023/06/06 04:30:37;;;;;;;7.00;5.20;;;;;;;15.52;70.30;96830.33;109565;1266;49869;-86
2023/06/06 04:33:14;;;;;;;7.60;5.20;;;;;;;15.61;70.31;96828.80;109624;1269;22621;-85
2023/06/06 04:35:49;;;;;;;8.70;5.60;;;;;;;15.69;70.29;96828.83;109441;1269;22508;-85
2023/06/06 04:38:22;;;;;;;9.60;5.10;;;;;;;15.77;70.53;96830.01;109601;1266;22630;-86
2023/06/06 04:41:01;;;;;;;7.60;5.50;;;;;;;15.84;70.71;96828.70;109583;1268;45378;-86
2023/06/06 04:43:32;;;;;;;6.00;4.60;;;;;;;15.91;70.70;96829.30;109605;1247;22534;-86
2023/06/06 04:46:07;;;;;;;6.50;5.00;;;;;;;15.94;70.73;96826.90;109555;1269;22514;-86
2023/06/06 04:48:39;;;;;;;7.40;4.70;;;;;;;15.97;70.70;96821.84;109613;1267;25402;-86
2023/06/06 04:51:10;;;;;;;6.50;4.30;;;;;;;15.99;70.44;96821.09;108029;1262;2004896;-86
2023/06/06 04:53:44;;;;;;;6.40;4.70;;;;;;;16.00;69.87;96822.58;109532;1266;23686;-86
2023/06/06 04:56:18;;;;;;;6.40;4.30;;;;;;;16.02;69.55;96823.90;109595;1269;25484;-85
2023/06/06 04:58:52;;;;;;;6.10;4.60;;;;;;;16.01;69.23;96823.23;109555;1269;23362;-86
2023/06/06 05:01:25;;;;;;;5.00;4.10;;;;;;;15.96;68.73;96820.55;109401;1269;54357;-86
2023/06/06 05:03:56;;;;;;;8.30;4.80;;;;;;;15.93;68.66;96819.23;109552;1267;22521;-86
2023/06/06 05:06:28;;;;;;;9.60;5.00;;;;;;;15.98;68.74;96820.59;109492;1266;22584;-86
2023/06/06 05:09:00;;;;;;;16.80;5.50;;;;;;;16.04;68.68;96821.34;109570;1262;23924;-86
2023/06/06 05:11:32;;;;;;;8.50;4.90;;;;;;;16.14;68.59;96824.23;109559;1269;85542;-85
2023/06/06 05:14:05;;;;;;;8.90;5.10;;;;;;;16.20;68.26;96820.75;109589;1269;24292;-86
2023/06/06 05:16:37;;;;;;;7.30;4.70;;;;;;;16.26;68.30;96822.72;109600;1269;22512;-86
2023/06/06 05:19:12;;;;;;;7.50;5.40;;;;;;;16.29;68.03;96826.18;109538;1263;23303;-86
2023/06/06 05:21:44;;;;;;;6.90;4.90;;;;;;;16.32;67.97;96827.39;109472;1269;71141;-86
2023/06/06 05:24:20;;;;;;;9.60;5.60;;;;;;;16.32;67.78;96824.76;109282;1264;22572;-86
2023/06/06 05:26:54;;;;;;;8.70;5.50;;;;;;;16.35;67.54;96822.59;109594;1264;22545;-86
2023/06/06 05:29:26;;;;;;;9.60;5.70;;;;;;;16.40;67.64;96820.00;109597;1264;22518;-86
2023/06/06 05:31:57;;;;;;;7.20;5.00;;;;;;;16.51;67.91;96819.37;109554;1263;41709;-86
2023/06/06 05:34:30;;;;;;;7.10;4.80;;;;;;;16.65;67.82;96818.89;109521;1269;22630;-86
2023/06/06 05:37:02;;;;;;;7.20;5.40;;;;;;;16.81;67.91;96821.41;109296;1269;22516;-86
2023/06/06 05:39:33;;;;;;;7.90;5.00;;;;;;;17.05;67.76;96818.23;109547;1264;22541;-86
2023/06/06 05:42:10;;;;;;;9.10;5.80;;;;;;;17.28;67.36;96822.54;109589;1263;35640;-86
2023/06/06 05:44:46;;;;;;;10.00;5.50;;;;;;;17.72;67.40;96822.59;109531;1265;25313;-86
2023/06/06 05:47:18;;;;;;;10.30;5.80;;;;;;;18.11;66.55;96821.27;109549;1269;22524;-86
2023/06/06 05:49:49;;;;;;;8.30;5.40;;;;;;;18.25;65.78;96824.05;109624;1269;23917;-86
2023/06/06 05:52:24;;;;;;;9.70;5.40;;;;;;;18.26;65.72;96825.09;109544;1267;58611;-86
2023/06/06 05:55:04;;;;;;;10.70;4.90;;;;;;;18.25;65.23;96821.97;109564;1267;23794;-87
2023/06/06 05:57:35;;;;;;;10.90;5.70;;;;;;;18.17;64.94;96817.91;109590;1269;22534;-87
2023/06/06 06:00:12;;;;;;;7.70;6.00;;;;;;;18.28;65.16;96820.10;109504;1262;24205;-87
2023/06/06 06:02:44;;;;;;;10.00;6.20;;;;;;;18.59;64.82;96817.93;109480;1269;76415;-86
2023/06/06 06:05:17;;;;;;;9.30;6.30;;;;;;;18.80;64.21;96821.15;109504;1262;22504;-86
2023/06/06 06:07:49;;;;;;;11.40;6.40;;;;;;;18.84;63.54;96822.17;109555;1269;22558;-86
2023/06/06 06:10:22;;;;;;;10.40;6.20;;;;;;;18.68;63.59;96822.56;109569;1266;23870;-86
2023/06/06 06:12:53;;;;;;;11.00;6.00;;;;;;;18.50;62.73;96830.48;109277;1264;25474;-86
2023/06/06 06:15:25;;;;;;;10.60;6.30;;;;;;;18.20;62.33;96833.52;109504;1251;22566;-87
2023/06/06 06:17:57;;;;;;;10.10;6.00;;;;;;;17.97;62.55;96835.98;109488;1269;22546;-86
2023/06/06 06:20:28;;;;;;;7.90;5.80;;;;;;;17.87;62.83;96837.72;109514;1269;24198;-86
2023/06/06 06:23:00;;;;;;;12.70;6.60;;;;;;;17.91;62.95;96835.91;109586;1247;22773;-87
2023/06/06 06:25:31;;;;;;;10.00;6.30;;;;;;;17.93;63.15;96836.52;109573;1269;22522;-86
2023/06/06 06:28:04;;;;;;;11.20;5.80;;;;;;;17.97;63.51;96839.45;109552;1267;22561;-86
2023/06/06 06:30:36;;;;;;;11.30;5.70;;;;;;;18.07;63.77;96833.38;109287;1267;107936;-87
2023/06/06 06:33:11;;;;;;;10.60;6.40;;;;;;;18.48;64.36;96829.33;109556;1264;22614;-86
2023/06/06 06:35:44;;;;;;;9.40;6.60;;;;;;;18.74;63.44;96831.94;109636;1269;22522;-87
2023/06/06 06:38:19;;;;;;;10.70;6.20;;;;;;;18.77;63.19;96834.64;109580;1263;22756;-87
2023/06/06 06:40:53;;;;;;;8.00;5.50;;;;;;;19.00;63.21;96834.05;109560;1264;78615;-87
2023/06/06 06:43:25;;;;;;;10.80;6.10;;;;;;;19.84;64.28;96839.77;109518;1263;22518;-87
2023/06/06 06:45:56;;;;;;;9.30;6.40;;;;;;;20.76;62.39;96835.43;109598;1269;22519;-86
2023/06/06 06:48:28;;;;;;;9.60;6.00;;;;;;;20.82;60.41;96834.62;109306;1269;22504;-87
2023/06/06 06:51:00;;;;;;;8.90;5.90;;;;;;;20.59;59.65;96834.66;107968;1267;2045556;-87
2023/06/06 06:53:37;;;;;;;10.50;6.10;;;;;;;20.31;58.99;96837.66;109625;1269;22518;-86
2023/06/06 06:56:11;;;;;;;8.00;5.20;;;;;;;19.93;58.48;96835.58;109546;1263;22569;-87
2023/06/06 06:58:44;;;;;;;9.50;5.70;;;;;;;19.62;58.90;96835.64;109548;1269;22547;-87
2023/06/06 07:01:19;;;;;;;10.30;5.30;;;;;;;19.44;58.86;96838.67;109525;1269;79050;-87
2023/06/06 07:03:51;;;;;;;7.40;5.70;;;;;;;19.25;58.99;96835.23;109568;1263;22528;-87
2023/06/06 07:06:25;;;;;;;9.00;5.60;;;;;;;19.16;59.12;96834.20;109478;1267;22546;-87
2023/06/06 07:08:56;;;;;;;11.40;6.00;;;;;;;19.09;59.23;96834.23;109573;1269;22607;-87
2023/06/06 07:11:27;;;;;;;7.90;5.20;;;;;;;18.98;59.38;96829.60;109241;1264;105213;-87
2023/06/06 07:14:00;;;;;;;10.20;5.90;;;;;;;18.87;59.54;96826.73;109387;1264;22633;-87
2023/06/06 07:16:35;;;;;;;9.30;5.50;;;;;;;18.80;59.89;96823.61;109600;1269;22517;-87
2023/06/06 07:19:06;;;;;;;17.10;7.00;;;;;;;18.77;59.99;96827.11;109590;1269;22530;-87
2023/06/06 07:21:43;;;;;;;8.90;5.70;;;;;;;18.70;60.03;96822.91;109400;1265;112104;-86
2023/06/06 07:24:17;;;;;;;10.50;6.60;;;;;;;18.62;60.16;96824.36;109536;1263;22518;-86
2023/06/06 07:26:51;;;;;;;9.70;5.90;;;;;;;18.59;60.57;96829.18;109548;1256;22511;-87
2023/06/06 07:29:26;;;;;;;12.50;6.90;;;;;;;18.59;60.62;96827.64;109518;1269;22739;-87
2023/06/06 07:31:58;;;;;;;10.30;6.60;;;;;;;18.57;60.85;96827.81;109447;1266;68724;-86
2023/06/06 07:34:31;;;;;;;9.10;6.00;;;;;;;18.54;61.05;96831.25;109556;1262;24661;-87
2023/06/06 07:37:06;;;;;;;7.80;6.00;;;;;;;18.52;60.94;96832.88;109563;1262;23222;-87
2023/06/06 07:39:43;;;;;;;9.50;6.60;;;;;;;18.51;60.70;96830.14;109526;1262;22632;-86
2023/06/06 07:42:17;;;;;;;8.30;6.00;;;;;;;18.52;60.37;96828.42;109614;1263;42350;-87
2023/06/06 07:44:51;;;;;;;9.00;5.70;;;;;;;18.56;60.71;96829.40;109535;1267;22538;-87
2023/06/06 07:47:24;;;;;;;9.30;5.40;;;;;;;18.63;61.01;96832.17;109302;1269;22504;-87
2023/06/06 07:49:57;;;;;;;11.40;6.30;;;;;;;18.68;61.17;96834.05;109431;1269;26341;-87
2023/06/06 07:52:30;;;;;;;8.70;6.00;;;;;;;18.78;61.61;96832.77;109433;1267;51057;-87
2023/06/06 07:55:06;;;;;;;8.70;6.10;;;;;;;18.86;61.59;96832.94;109455;1263;22511;-86
2023/06/06 07:57:39;;;;;;;11.80;6.30;;;;;;;18.82;60.83;96832.01;109604;1269;25410;-87
2023/06/06 08:00:14;;;;;;;10.90;5.90;;;;;;;18.75;60.76;96832.88;109542;1261;26234;-86
2023/06/06 08:02:46;;;;;;;7.80;5.50;;;;;;;18.70;61.19;96832.58;109579;1246;43618;-86
2023/06/06 08:05:21;;;;;;;9.40;6.30;;;;;;;18.67;61.38;96829.64;109324;1269;22522;-86
2023/06/06 08:07:53;;;;;;;9.00;6.40;;;;;;;18.68;62.07;96828.16;109583;1263;22521;-86
2023/06/06 08:10:25;;;;;;;8.90;6.50;;;;;;;18.71;62.12;96820.23;109396;1269;24622;-87
2023/06/06 08:12:56;;;;;;;10.00;6.10;;;;;;;18.71;62.54;96819.44;109495;1263;83790;-87
2023/06/06 08:15:28;;;;;;;9.40;6.30;;;;;;;18.73;62.98;96823.73;109397;1262;22553;-87
2023/06/06 08:18:02;;;;;;;9.50;6.60;;;;;;;18.67;62.78;96824.98;109545;1269;22495;-87
2023/06/06 08:20:34;;;;;;;9.80;6.30;;;;;;;18.62;62.62;96824.84;109344;1269;213533;-88
2023/06/06 08:23:09;;;;;;;11.40;5.90;;;;;;;18.56;62.66;96827.73;109581;1269;22522;-87
2023/06/06 08:25:45;;;;;;;11.00;6.60;;;;;;;18.52;62.92;96834.80;109316;1269;22548;-87
2023/06/06 08:28:17;;;;;;;12.30;6.40;;;;;;;18.51;63.25;96832.54;109523;1269;22519;-86
2023/06/06 08:30:48;;;;;;;10.60;6.50;;;;;;;18.54;63.57;96826.64;109510;1248;94044;-86
2023/06/06 08:33:22;;;;;;;8.90;6.80;;;;;;;18.58;64.27;96825.77;109588;1266;22553;-87
2023/06/06 08:35:53;;;;;;;11.20;6.50;;;;;;;18.61;64.70;96829.61;109547;1269;22633;-86
2023/06/06 08:38:51;;;;;;;9.50;6.50;;;;;;;18.59;64.56;96830.00;109504;1262;22613;-86
2023/06/06 08:41:24;;;;;;;10.80;6.40;;;;;;;18.58;65.01;96833.10;108138;1268;1875527;-87
2023/06/06 08:43:57;;;;;;;9.40;6.50;;;;;;;18.61;65.00;96835.52;109607;1266;22504;-86
2023/06/06 08:46:34;;;;;;;9.60;6.90;;;;;;;18.59;64.44;96843.42;109616;1267;22599;-86
2023/06/06 08:49:08;;;;;;;11.40;6.70;;;;;;;18.57;64.55;96838.96;109560;1269;24241;-86
2023/06/06 08:51:39;;;;;;;13.70;7.30;;;;;;;18.60;64.63;96839.85;109257;1263;56074;-86
2023/06/06 08:54:12;;;;;;;14.20;7.50;;;;;;;18.67;65.18;96840.31;109586;1246;22537;-87
2023/06/06 08:56:47;;;;;;;13.40;6.80;;;;;;;18.68;64.96;96839.23;109307;1269;22512;-86
2023/06/06 08:59:21;;;;;;;13.50;7.20;;;;;;;18.72;65.00;96838.58;109598;1263;22515;-87
2023/06/06 09:01:54;;;;;;;10.80;7.40;;;;;;;18.79;65.43;96841.10;109507;1268;62213;-86
2023/06/06 09:04:27;;;;;;;11.20;6.40;;;;;;;18.85;65.66;96841.10;109548;1266;22541;-86
2023/06/06 09:07:02;;;;;;;9.70;6.30;;;;;;;18.91;65.40;96837.87;109627;1263;22521;-86
2023/06/06 09:09:34;;;;;;;13.30;7.00;;;;;;;18.94;65.43;96837.46;109630;1269;23740;-87
2023/06/06 09:12:09;;;;;;;9.80;6.10;;;;;;;18.93;65.36;96840.95;109522;1262;62070;-86
2023/06/06 09:14:41;;;;;;;9.60;6.70;;;;;;;18.91;65.69;96842.61;109593;1262;22500;-86
2023/06/06 09:17:18;;;;;;;9.40;6.10;;;;;;;18.91;66.18;96841.16;109626;1269;22507;-86
2023/06/06 09:19:53;;;;;;;8.20;6.10;;;;;;;18.88;66.29;96844.96;109575;1262;25541;-87
2023/06/06 09:22:28;;;;;;;11.10;6.30;;;;;;;18.81;66.42;96846.30;109226;1266;40189;-87
2023/06/06 09:25:00;;;;;;;8.20;6.20;;;;;;;18.77;66.78;96846.08;109517;1267;22627;-87
2023/06/06 09:27:34;;;;;;;9.50;6.30;;;;;;;18.75;67.02;96842.84;109553;1263;22534;-86
2023/06/06 09:30:19;;;;;;;8.90;6.20;;;;;;;18.69;67.13;96842.08;109590;1266;22613;-87
2023/06/06 09:32:56;;;;;;;11.20;6.40;;;;;;;18.67;67.47;96842.08;109497;1269;94208;-86
2023/06/06 09:35:33;;;;;;;9.10;6.10;;;;;;;18.70;67.73;96844.94;109524;1263;22657;-86
2023/06/06 09:38:15;;;;;;;7.90;5.60;;;;;;;18.74;67.76;96844.27;109635;1269;22513;-86
2023/06/06 09:40:49;;;;;;;8.90;6.10;;;;;;;18.80;67.79;96845.96;109474;1263;109547;-86
2023/06/06 09:43:27;;;;;;;9.60;6.00;;;;;;;18.86;67.84;96844.92;109586;1265;22511;-86
2023/06/06 09:46:04;;;;;;;10.10;5.90;;;;;;;18.94;67.58;96850.02;109532;1263;25887;-86
2023/06/06 09:48:35;;;;;;;8.40;5.70;;;;;;;18.96;67.56;96847.05;109570;1266;22511;-87
2023/06/06 09:51:10;;;;;;;7.60;5.40;;;;;;;18.96;67.59;96854.08;109546;1269;83636;-87
2023/06/06 09:53:50;;;;;;;7.60;6.00;;;;;;;18.91;66.85;96853.39;109562;1269;23760;-86
2023/06/06 09:56:24;;;;;;;9.20;5.80;;;;;;;18.87;67.02;96853.98;109559;1269;22550;-86
2023/06/06 09:59:00;;;;;;;8.70;5.70;;;;;;;18.87;66.64;96851.20;109569;1269;22519;-87
2023/06/06 10:01:36;;;;;;;7.20;5.40;;;;;;;18.86;66.29;96854.65;109503;1263;70540;-86
2023/06/06 10:04:10;;;;;;;6.40;5.40;;;;;;;18.85;66.19;96859.58;109567;1263;22547;-86
2023/06/06 10:06:46;;;;;;;8.90;5.60;;;;;;;18.87;66.12;96862.43;109562;1263;22517;-86
2023/06/06 10:09:22;;;;;;;7.60;5.70;;;;;;;18.85;66.02;96863.98;109594;1269;22931;-87
2023/06/06 10:11:54;;;;;;;8.20;5.10;;;;;;;18.82;65.90;96862.69;109589;1269;51627;-87
2023/06/06 10:14:26;;;;;;;6.70;5.20;;;;;;;18.81;66.14;96866.40;109592;1265;22535;-87
2023/06/06 10:17:00;;;;;;;7.50;5.30;;;;;;;18.82;66.33;96862.98;109304;1267;22561;-87
2023/06/06 10:19:34;;;;;;;8.40;5.60;;;;;;;18.78;66.57;96865.47;109576;1263;22988;-87
2023/06/06 10:22:06;;;;;;;7.90;5.40;;;;;;;18.77;66.72;96866.49;109555;1266;71176;-87
2023/06/06 10:24:37;;;;;;;7.60;5.60;;;;;;;18.76;66.75;96869.31;109621;1269;22513;-87
2023/06/06 10:27:18;;;;;;;8.70;5.70;;;;;;;18.75;66.61;96872.55;109566;1269;22544;-87
2023/06/06 10:29:55;;;;;;;7.20;5.20;;;;;;;18.71;66.80;96873.57;109445;1269;22851;-86
2023/06/06 10:32:41;;;;;;;9.30;6.70;;;;;;;18.52;66.68;96874.13;109500;1262;64014;-87
2023/06/06 10:35:16;;;;;;;7.30;5.70;;;;;;;18.35;67.40;96873.85;109543;1269;23273;-86
2023/06/06 10:38:03;;;;;;;7.70;5.10;;;;;;;18.29;67.42;96874.69;109507;1269;25433;-87
2023/06/06 10:40:49;;;;;;;8.30;5.10;;;;;;;18.21;67.53;96874.81;109570;1269;22504;-87
2023/06/06 10:43:44;;;;;;;7.40;5.30;;;;;;;18.18;67.80;96876.51;109639;1261;25432;-86
2023/06/06 10:46:15;;;;;;;6.30;5.10;;;;;;;18.14;67.46;96881.93;109541;1269;25419;-86
2023/06/06 10:48:55;;;;;;;6.90;4.70;;;;;;;18.06;67.61;96872.96;109601;1269;22523;-87
2023/06/06 10:51:36;;;;;;;9.40;5.40;;;;;;;17.98;67.82;96876.06;109506;1262;67607;-87
2023/06/06 10:54:20;;;;;;;7.80;5.00;;;;;;;17.91;68.19;96877.07;109563;1269;22620;-86
2023/06/06 10:56:54;;;;;;;6.20;5.10;;;;;;;17.86;68.85;96880.50;109608;1269;22573;-86
2023/06/06 10:59:28;;;;;;;7.20;5.10;;;;;;;17.84;69.44;96882.18;109543;1269;22523;-86
2023/06/06 11:01:59;;;;;;;7.60;5.40;;;;;;;17.87;69.95;96883.41;109481;1262;44403;-86
2023/06/06 11:04:38;;;;;;;7.10;4.80;;;;;;;17.91;70.10;96885.94;109584;1263;22511;-86
2023/06/06 11:07:20;;;;;;;8.80;5.20;;;;;;;17.94;70.46;96888.70;109608;1262;23762;-87
2023/06/06 11:09:51;;;;;;;9.40;6.20;;;;;;;17.90;69.85;96883.70;109399;1262;25758;-87
2023/06/06 11:12:30;;;;;;;8.60;5.30;;;;;;;17.82;69.84;96886.10;109351;1247;64081;-86
2023/06/06 11:15:04;;;;;;;8.50;5.90;;;;;;;17.80;69.83;96880.05;109408;1263;22513;-86
2023/06/06 11:17:47;;;;;;;9.50;5.80;;;;;;;17.82;70.22;96881.11;109414;1267;22501;-86
2023/06/06 11:20:24;;;;;;;8.10;5.60;;;;;;;17.87;70.58;96884.48;109206;1270;22602;-86
2023/06/06 11:23:01;;;;;;;7.10;5.00;;;;;;;17.92;71.10;96883.56;109343;1270;62570;-86
2023/06/06 11:25:35;;;;;;;7.20;5.50;;;;;;;17.97;70.94;96883.29;109426;1267;22548;-86
2023/06/06 11:28:08;;;;;;;6.40;4.80;;;;;;;18.00;70.64;96881.20;109372;1270;22520;-86
2023/06/06 11:30:41;;;;;;;5.80;4.70;;;;;;;18.05;70.47;96883.48;109383;1270;22664;-86
2023/06/06 11:33:12;;;;;;;6.60;5.10;;;;;;;18.11;70.78;96879.76;109512;1269;22562;-85
2023/06/06 11:35:43;;;;;;;5.70;4.90;;;;;;;18.20;71.12;96881.20;109506;1269;22524;-86
2023/06/06 11:38:15;;;;;;;6.80;4.80;;;;;;;18.27;70.81;96880.34;109587;1269;22500;-87
2023/06/06 11:40:47;;;;;;;8.30;4.90;;;;;;;18.30;70.58;96881.54;109578;1246;22604;-85
2023/06/06 11:43:18;;;;;;;5.00;4.40;;;;;;;18.35;71.13;96877.84;109602;1269;22554;-86
2023/06/06 11:46:05;;;;;;;5.50;4.70;;;;;;;18.40;70.63;96879.57;109578;1269;22758;-86
2023/06/06 11:48:36;;;;;;;6.90;5.10;;;;;;;18.49;71.33;96874.55;109600;1269;22556;-86
2023/06/06 11:51:15;;;;;;;7.00;4.70;;;;;;;18.61;71.90;96868.53;109547;1263;37001;-86
2023/06/06 11:53:48;;;;;;;6.30;5.10;;;;;;;18.75;72.41;96868.11;109571;1269;23008;-87
2023/06/06 11:56:21;;;;;;;6.90;5.20;;;;;;;18.87;72.72;96865.96;109567;1269;22548;-86
2023/06/06 11:58:53;;;;;;;7.60;4.90;;;;;;;18.96;72.99;96861.41;109558;1269;23850;-86